Time;durP1;ratioP1;P1;durP2;ratioP2;P2;SDS_P1;SDS_P2;PMS_P1;PMS_P2;Temp;Humidity;BMP_temperature;BMP_pressure;BME280_temperature;BME280_humidity;BME280_pressure;Samples;Min_cycle;Max_cycle;Signal;HPM_P1;HPM_P2
2024/01/08 00:01:04;;;;;;;10.70;4.10;;;;;;;;;;5027679;28;20586;-75
2024/01/08 00:03:30;;;;;;;13.15;5.40;;;;;;;;;;5026881;28;20033;-75
2024/01/08 00:05:56;;;;;;;13.35;5.95;;;;;;;;;;5026776;28;20041;-75
2024/01/08 00:08:22;;;;;;;15.95;6.72;;;;;;;;;;5026738;28;20048;-75
2024/01/08 00:10:47;;;;;;;12.18;6.47;;;;;;;;;;5024747;28;20606;-75
2024/01/08 00:13:12;;;;;;;21.38;8.68;;;;;;;;;;5026493;28;20029;-75
2024/01/08 00:15:38;;;;;;;17.35;6.35;;;;;;;;;;5042253;28;20033;-75
2024/01/08 00:18:03;;;;;;;17.02;7.68;;;;;;;;;;5040168;28;20060;-75
2024/01/08 00:20:29;;;;;;;15.13;5.75;;;;;;;;;;5026042;28;20040;-75
2024/01/08 00:22:55;;;;;;;16.83;8.38;;;;;;;;;;5024526;28;20056;-74
2024/01/08 00:25:23;;;;;;;18.20;8.00;;;;;;;;;;5026793;28;20025;-75
2024/01/08 00:27:50;;;;;;;14.05;6.00;;;;;;;;;;5044680;28;20029;-74
2024/01/08 00:30:16;;;;;;;15.18;7.18;;;;;;;;;;5064518;28;20162;-75
2024/01/08 00:32:42;;;;;;;16.98;5.47;;;;;;;;;;5065737;28;20127;-75
2024/01/08 00:35:08;;;;;;;14.40;6.38;;;;;;;;;;5065739;28;20119;-75
2024/01/08 00:37:43;;;;;;;18.30;7.20;;;;;;;;;;5056736;28;20532;-75
2024/01/08 00:40:10;;;;;;;13.07;5.95;;;;;;;;;;5045839;28;20020;-75
2024/01/08 00:42:36;;;;;;;19.15;8.05;;;;;;;;;;5038545;28;20073;-75
2024/01/08 00:45:05;;;;;;;22.15;9.52;;;;;;;;;;5025471;28;20033;-75
2024/01/08 00:47:31;;;;;;;21.33;7.47;;;;;;;;;;5025947;28;20030;-75
2024/01/08 00:49:56;;;;;;;15.98;6.60;;;;;;;;;;5025806;28;20044;-74
2024/01/08 00:52:21;;;;;;;17.40;8.27;;;;;;;;;;5025497;28;20040;-75
2024/01/08 00:54:47;;;;;;;12.80;6.03;;;;;;;;;;5026316;28;20029;-75
2024/01/08 00:57:13;;;;;;;15.93;7.47;;;;;;;;;;5025823;28;20422;-75
2024/01/08 00:59:38;;;;;;;23.80;8.43;;;;;;;;;;5024271;28;20661;-75
2024/01/08 01:02:03;;;;;;;14.25;6.53;;;;;;;;;;5026139;28;20045;-75
2024/01/08 01:04:29;;;;;;;12.38;4.50;;;;;;;;;;5025514;28;20045;-75
2024/01/08 01:06:54;;;;;;;12.88;6.30;;;;;;;;;;5027569;28;20048;-75
2024/01/08 01:09:20;;;;;;;13.68;6.95;;;;;;;;;;5031253;28;20028;-75
2024/01/08 01:11:45;;;;;;;13.68;6.07;;;;;;;;;;5053511;28;20044;-75
2024/01/08 01:14:11;;;;;;;11.82;5.43;;;;;;;;;;5032207;28;20064;-74
2024/01/08 01:16:36;;;;;;;14.95;6.55;;;;;;;;;;5025474;28;20133;-75
2024/01/08 01:19:01;;;;;;;9.73;4.45;;;;;;;;;;5025338;28;20029;-75
2024/01/08 01:21:28;;;;;;;12.90;6.13;;;;;;;;;;5026180;28;20429;-75
2024/01/08 01:23:54;;;;;;;10.57;5.22;;;;;;;;;;5024579;28;20060;-75
2024/01/08 01:26:20;;;;;;;17.23;7.13;;;;;;;;;;5025470;28;20060;-75
2024/01/08 01:28:45;;;;;;;9.85;5.82;;;;;;;;;;5025151;28;20084;-75
2024/01/08 01:31:11;;;;;;;20.90;9.40;;;;;;;;;;5025133;28;20037;-75
2024/01/08 01:33:37;;;;;;;14.02;6.68;;;;;;;;;;5025391;28;20083;-75
2024/01/08 01:36:02;;;;;;;8.82;4.40;;;;;;;;;;5025288;28;20584;-75
2024/01/08 01:38:28;;;;;;;14.05;5.18;;;;;;;;;;5039656;28;20044;-75
2024/01/08 01:40:53;;;;;;;17.27;5.93;;;;;;;;;;5045098;28;20033;-75
2024/01/08 01:43:24;;;;;;;13.05;7.13;;;;;;;;;;5031871;28;20056;-75
2024/01/08 01:45:52;;;;;;;5.97;3.35;;;;;;;;;;5025778;28;20034;-75
2024/01/08 01:48:17;;;;;;;15.35;5.43;;;;;;;;;;5024065;28;20103;-75
2024/01/08 01:50:43;;;;;;;8.57;4.28;;;;;;;;;;5024779;28;20477;-75
2024/01/08 01:53:09;;;;;;;15.80;6.72;;;;;;;;;;5025218;28;20850;-75
2024/01/08 01:55:35;;;;;;;12.40;6.60;;;;;;;;;;5024947;28;20175;-75
2024/01/08 01:58:00;;;;;;;10.73;5.35;;;;;;;;;;5025082;28;20479;-75
2024/01/08 02:00:26;;;;;;;7.90;3.85;;;;;;;;;;5025588;28;20057;-75
2024/01/08 02:02:51;;;;;;;12.15;5.47;;;;;;;;;;5024537;28;20041;-75
2024/01/08 02:05:17;;;;;;;9.05;4.88;;;;;;;;;;5024451;28;20041;-75
2024/01/08 02:07:44;;;;;;;13.40;5.65;;;;;;;;;;5023835;28;20038;-75
2024/01/08 02:10:09;;;;;;;10.93;5.20;;;;;;;;;;5024690;28;20130;-75
2024/01/08 02:12:36;;;;;;;11.52;4.93;;;;;;;;;;5025945;28;20766;-75
2024/01/08 02:15:04;;;;;;;6.13;3.45;;;;;;;;;;5023016;28;20045;-75
2024/01/08 02:17:30;;;;;;;11.43;5.47;;;;;;;;;;5025064;28;20087;-74
2024/01/08 02:19:55;;;;;;;11.93;4.80;;;;;;;;;;5025064;28;20037;-75
2024/01/08 02:22:20;;;;;;;12.73;5.03;;;;;;;;;;5024934;28;20042;-75
2024/01/08 02:24:46;;;;;;;14.95;4.93;;;;;;;;;;5024563;28;20064;-75
2024/01/08 02:27:11;;;;;;;9.32;4.20;;;;;;;;;;5025404;28;20052;-75
2024/01/08 02:29:37;;;;;;;8.80;4.28;;;;;;;;;;5032149;28;20033;-75
2024/01/08 02:32:02;;;;;;;8.63;3.03;;;;;;;;;;5040945;28;20131;-75
2024/01/08 02:34:28;;;;;;;12.75;5.65;;;;;;;;;;5036584;28;20044;-75
2024/01/08 02:36:53;;;;;;;10.88;5.03;;;;;;;;;;5027763;28;20029;-75
2024/01/08 02:39:18;;;;;;;9.93;4.35;;;;;;;;;;5045623;28;20036;-75
2024/01/08 02:41:44;;;;;;;13.20;6.60;;;;;;;;;;5045585;28;20102;-76
2024/01/08 02:44:09;;;;;;;11.07;4.95;;;;;;;;;;5063251;28;20051;-75
2024/01/08 02:46:35;;;;;;;6.78;3.60;;;;;;;;;;5063731;28;20037;-75
2024/01/08 02:49:00;;;;;;;12.93;5.15;;;;;;;;;;5047292;28;20159;-75
2024/01/08 02:51:25;;;;;;;8.63;3.92;;;;;;;;;;5048523;28;20029;-75
2024/01/08 02:53:51;;;;;;;9.52;3.65;;;;;;;;;;5047768;28;20033;-75
2024/01/08 02:56:23;;;;;;;10.95;5.45;;;;;;;;;;5047929;28;20040;-75
2024/01/08 02:58:48;;;;;;;10.43;4.63;;;;;;;;;;5047018;28;20036;-75
2024/01/08 03:01:14;;;;;;;7.43;3.60;;;;;;;;;;5048055;28;20098;-75
2024/01/08 03:03:39;;;;;;;8.77;4.05;;;;;;;;;;5048101;28;20058;-75
2024/01/08 03:06:05;;;;;;;11.07;4.72;;;;;;;;;;5047682;28;20040;-75
2024/01/08 03:08:30;;;;;;;15.48;5.50;;;;;;;;;;5047262;28;20037;-75
2024/01/08 03:10:55;;;;;;;13.23;5.10;;;;;;;;;;5045998;28;20045;-75
2024/01/08 03:13:21;;;;;;;11.40;5.63;;;;;;;;;;5062424;28;20124;-75
2024/01/08 03:15:46;;;;;;;8.57;4.13;;;;;;;;;;5048352;28;20040;-75
2024/01/08 03:18:12;;;;;;;14.55;6.32;;;;;;;;;;5047419;28;20045;-75
2024/01/08 03:20:38;;;;;;;9.43;4.32;;;;;;;;;;5047403;28;20037;-74
2024/01/08 03:23:03;;;;;;;10.60;5.18;;;;;;;;;;5045600;28;20053;-75
2024/01/08 03:25:29;;;;;;;9.95;4.50;;;;;;;;;;5047255;28;20036;-75
2024/01/08 03:27:54;;;;;;;9.00;3.65;;;;;;;;;;5047528;28;20033;-75
2024/01/08 03:30:20;;;;;;;10.95;5.18;;;;;;;;;;5046295;28;20415;-74
2024/01/08 03:32:45;;;;;;;8.65;4.75;;;;;;;;;;5047523;28;20121;-74
2024/01/08 03:35:11;;;;;;;11.48;4.97;;;;;;;;;;5062633;28;20814;-75
2024/01/08 03:37:36;;;;;;;9.20;3.85;;;;;;;;;;5038659;28;20137;-74
2024/01/08 03:40:04;;;;;;;7.82;4.05;;;;;;;;;;5027638;28;20068;-74
2024/01/08 03:42:29;;;;;;;12.73;5.78;;;;;;;;;;5032515;28;20277;-75
2024/01/08 03:44:54;;;;;;;14.75;5.55;;;;;;;;;;5047893;28;20479;-74
2024/01/08 03:47:20;;;;;;;9.05;4.35;;;;;;;;;;5049010;28;20052;-74
2024/01/08 03:49:45;;;;;;;13.38;6.07;;;;;;;;;;5053797;28;20044;-75
2024/01/08 03:52:11;;;;;;;16.20;7.22;;;;;;;;;;5059696;28;20057;-74
2024/01/08 03:54:37;;;;;;;8.63;3.80;;;;;;;;;;5048540;28;20750;-74
2024/01/08 03:57:03;;;;;;;10.65;5.13;;;;;;;;;;5045319;28;20052;-74
2024/01/08 03:59:28;;;;;;;13.77;6.22;;;;;;;;;;5038720;28;20678;-74
2024/01/08 04:01:54;;;;;;;14.90;5.45;;;;;;;;;;5026981;28;20041;-74
2024/01/08 04:04:19;;;;;;;12.80;5.38;;;;;;;;;;5024985;28;20120;-74
2024/01/08 04:06:46;;;;;;;9.43;4.07;;;;;;;;;;5025090;28;20029;-74
2024/01/08 04:09:14;;;;;;;10.00;4.53;;;;;;;;;;5026745;28;20138;-74
2024/01/08 04:11:40;;;;;;;10.30;5.03;;;;;;;;;;5024910;28;20029;-75
2024/01/08 04:14:06;;;;;;;12.75;3.90;;;;;;;;;;5026688;28;20049;-75
2024/01/08 04:16:31;;;;;;;9.05;4.88;;;;;;;;;;5026849;28;20041;-74
2024/01/08 04:18:56;;;;;;;13.30;5.57;;;;;;;;;;5024718;28;20068;-75
2024/01/08 04:21:22;;;;;;;10.93;5.03;;;;;;;;;;5026449;28;20037;-74
2024/01/08 04:23:47;;;;;;;8.15;3.85;;;;;;;;;;5025702;28;20041;-75
2024/01/08 04:26:16;;;;;;;12.02;4.90;;;;;;;;;;5025166;28;20558;-74
2024/01/08 04:28:42;;;;;;;14.20;6.43;;;;;;;;;;5024836;28;20045;-76
2024/01/08 04:31:19;;;;;;;11.57;5.40;;;;;;;;;;5026776;28;20456;-74
2024/01/08 04:33:44;;;;;;;9.30;4.50;;;;;;;;;;5034437;28;20064;-75
2024/01/08 04:36:11;;;;;;;10.85;5.25;;;;;;;;;;5046299;28;20159;-74
2024/01/08 04:38:37;;;;;;;11.65;5.75;;;;;;;;;;5029811;28;20045;-75
2024/01/08 04:41:02;;;;;;;10.23;5.28;;;;;;;;;;5025715;28;20037;-75
2024/01/08 04:43:28;;;;;;;4.13;2.72;;;;;;;;;;5038763;28;20037;-74
2024/01/08 04:45:53;;;;;;;12.38;5.43;;;;;;;;;;5061428;28;20480;-74
2024/01/08 04:48:18;;;;;;;16.50;7.47;;;;;;;;;;5061619;28;20079;-74
2024/01/08 04:50:44;;;;;;;7.93;4.75;;;;;;;;;;5046171;28;20037;-75
2024/01/08 04:53:09;;;;;;;11.75;6.10;;;;;;;;;;5045732;28;20725;-74
2024/01/08 04:55:34;;;;;;;10.75;5.00;;;;;;;;;;5046291;28;20037;-74
2024/01/08 04:58:00;;;;;;;13.15;4.95;;;;;;;;;;5046001;28;20033;-74
2024/01/08 05:00:25;;;;;;;8.90;3.95;;;;;;;;;;5046034;28;20522;-74
2024/01/08 05:02:51;;;;;;;9.93;4.80;;;;;;;;;;5046092;28;20116;-75
2024/01/08 05:05:16;;;;;;;8.55;3.85;;;;;;;;;;5044434;28;20767;-74
2024/01/08 05:07:41;;;;;;;12.70;5.90;;;;;;;;;;5049595;28;20044;-75
2024/01/08 05:10:07;;;;;;;10.73;5.10;;;;;;;;;;5057930;28;20037;-75
2024/01/08 05:12:33;;;;;;;15.50;7.72;;;;;;;;;;5062501;28;20049;-75
2024/01/08 05:14:58;;;;;;;12.10;5.03;;;;;;;;;;5049272;28;20553;-75
2024/01/08 05:17:23;;;;;;;14.85;5.95;;;;;;;;;;5046554;28;20037;-75
2024/01/08 05:19:51;;;;;;;12.40;6.35;;;;;;;;;;5045930;28;20029;-75
2024/01/08 05:22:16;;;;;;;14.32;4.45;;;;;;;;;;5043628;28;20033;-75
2024/01/08 05:24:42;;;;;;;11.50;6.20;;;;;;;;;;5046396;28;20039;-75
2024/01/08 05:27:07;;;;;;;9.52;5.03;;;;;;;;;;5045484;28;20063;-75
2024/01/08 05:29:32;;;;;;;7.28;3.10;;;;;;;;;;5044590;28;20059;-75
2024/01/08 05:31:58;;;;;;;5.88;3.45;;;;;;;;;;5045644;28;20029;-75
2024/01/08 05:34:23;;;;;;;6.25;3.08;;;;;;;;;;5045132;28;20040;-75
2024/01/08 05:36:48;;;;;;;11.38;4.38;;;;;;;;;;5044270;28;20530;-75
2024/01/08 05:39:16;;;;;;;8.63;4.60;;;;;;;;;;5025245;28;20033;-75
2024/01/08 05:41:41;;;;;;;5.65;3.08;;;;;;;;;;5024877;28;20634;-75
2024/01/08 05:44:08;;;;;;;10.38;4.50;;;;;;;;;;5044837;28;20119;-75
2024/01/08 05:46:33;;;;;;;12.13;6.00;;;;;;;;;;5045356;28;20455;-75
2024/01/08 05:48:59;;;;;;;11.75;5.90;;;;;;;;;;5045166;28;20056;-75
2024/01/08 05:51:28;;;;;;;10.63;5.70;;;;;;;;;;5045415;28;20742;-75
2024/01/08 05:53:54;;;;;;;13.20;3.70;;;;;;;;;;5044582;28;20048;-75
2024/01/08 05:56:19;;;;;;;7.78;4.10;;;;;;;;;;5044969;28;20041;-75
2024/01/08 05:58:44;;;;;;;9.15;4.40;;;;;;;;;;5045188;28;20037;-75
2024/01/08 06:01:10;;;;;;;8.85;4.13;;;;;;;;;;5059551;28;20074;-75
2024/01/08 06:03:35;;;;;;;8.93;4.03;;;;;;;;;;5045852;28;20032;-75
2024/01/08 06:06:01;;;;;;;4.55;2.05;;;;;;;;;;5059947;28;20091;-75
2024/01/08 06:08:26;;;;;;;9.68;4.40;;;;;;;;;;5044869;28;20120;-75
2024/01/08 06:10:52;;;;;;;7.78;4.13;;;;;;;;;;5045416;28;20029;-75
2024/01/08 06:13:17;;;;;;;5.88;3.15;;;;;;;;;;5044182;28;20029;-75
2024/01/08 06:15:43;;;;;;;7.45;3.25;;;;;;;;;;5046596;28;20607;-75
2024/01/08 06:18:08;;;;;;;9.85;3.40;;;;;;;;;;5049201;28;20025;-75
2024/01/08 06:20:34;;;;;;;8.70;3.80;;;;;;;;;;5049475;28;20033;-75
2024/01/08 06:23:00;;;;;;;5.30;2.83;;;;;;;;;;5065574;28;20041;-75
2024/01/08 06:25:25;;;;;;;9.80;4.32;;;;;;;;;;5047174;28;20051;-75
2024/01/08 06:27:51;;;;;;;8.23;4.47;;;;;;;;;;5043931;28;20037;-76
2024/01/08 06:30:17;;;;;;;10.93;5.55;;;;;;;;;;5044449;28;20040;-76
2024/01/08 06:32:43;;;;;;;9.13;3.88;;;;;;;;;;5046571;28;20453;-76
2024/01/08 06:35:08;;;;;;;9.82;4.70;;;;;;;;;;5032047;28;20029;-76
2024/01/08 06:37:34;;;;;;;11.20;4.90;;;;;;;;;;5045088;28;20041;-76
2024/01/08 06:39:59;;;;;;;9.65;5.57;;;;;;;;;;5047976;28;20151;-75
2024/01/08 06:42:24;;;;;;;9.02;4.07;;;;;;;;;;5048583;28;20082;-77
2024/01/08 06:44:50;;;;;;;8.85;4.50;;;;;;;;;;5046749;28;20116;-76
2024/01/08 06:47:15;;;;;;;12.13;5.53;;;;;;;;;;5046937;28;20053;-76
2024/01/08 06:49:40;;;;;;;9.18;4.43;;;;;;;;;;5043085;28;20041;-75
2024/01/08 06:52:06;;;;;;;12.00;4.53;;;;;;;;;;5034677;28;20564;-75
2024/01/08 06:54:31;;;;;;;12.93;5.72;;;;;;;;;;5047793;28;20561;-75
2024/01/08 06:56:57;;;;;;;7.68;3.53;;;;;;;;;;5049292;28;20044;-76
2024/01/08 06:59:23;;;;;;;12.80;6.50;;;;;;;;;;5045210;28;20083;-75
2024/01/08 07:01:51;;;;;;;10.18;5.38;;;;;;;;;;5039027;28;20426;-75
2024/01/08 07:04:17;;;;;;;7.85;3.42;;;;;;;;;;5029981;28;20474;-75
2024/01/08 07:06:42;;;;;;;8.38;4.03;;;;;;;;;;5028540;28;20487;-74
2024/01/08 07:09:07;;;;;;;8.48;4.32;;;;;;;;;;5049204;28;20033;-76
2024/01/08 07:11:33;;;;;;;5.55;3.17;;;;;;;;;;5029964;28;20530;-75
2024/01/08 07:13:58;;;;;;;14.40;4.93;;;;;;;;;;5025557;28;20060;-75
2024/01/08 07:16:25;;;;;;;8.48;4.10;;;;;;;;;;5026473;28;20044;-75
2024/01/08 07:18:50;;;;;;;8.02;3.55;;;;;;;;;;5027739;28;20037;-75
2024/01/08 07:21:16;;;;;;;7.80;4.00;;;;;;;;;;5026000;28;20090;-76
2024/01/08 07:23:44;;;;;;;7.97;4.20;;;;;;;;;;5027211;28;20510;-76
2024/01/08 07:26:09;;;;;;;8.93;3.90;;;;;;;;;;5026802;28;20534;-76
2024/01/08 07:28:35;;;;;;;11.60;4.18;;;;;;;;;;5026972;28;20029;-76
2024/01/08 07:31:01;;;;;;;9.00;4.18;;;;;;;;;;5038080;28;20024;-77
2024/01/08 07:33:26;;;;;;;11.25;4.40;;;;;;;;;;5068498;28;20024;-76
2024/01/08 07:35:52;;;;;;;10.73;5.35;;;;;;;;;;5066457;28;20047;-74
2024/01/08 07:38:20;;;;;;;10.45;5.20;;;;;;;;;;5052741;28;20037;-74
2024/01/08 07:40:45;;;;;;;12.02;4.05;;;;;;;;;;5044326;28;20517;-74
2024/01/08 07:43:11;;;;;;;10.80;4.68;;;;;;;;;;5034325;28;20037;-73
2024/01/08 07:45:36;;;;;;;10.88;4.90;;;;;;;;;;5028843;28;20201;-74
2024/01/08 07:48:02;;;;;;;8.73;4.03;;;;;;;;;;5036148;28;20048;-74
2024/01/08 07:50:27;;;;;;;10.32;4.32;;;;;;;;;;5043636;28;20037;-73
2024/01/08 07:52:52;;;;;;;17.17;6.68;;;;;;;;;;5033696;28;20033;-74
2024/01/08 07:55:19;;;;;;;9.07;4.68;;;;;;;;;;5027818;28;20108;-74
2024/01/08 07:57:45;;;;;;;10.25;4.53;;;;;;;;;;5025481;28;20494;-74
2024/01/08 08:00:11;;;;;;;10.35;4.07;;;;;;;;;;5024678;28;20535;-74
2024/01/08 08:02:38;;;;;;;7.47;4.18;;;;;;;;;;5029093;28;20043;-77
2024/01/08 08:05:04;;;;;;;16.00;4.80;;;;;;;;;;5036399;28;20056;-76
2024/01/08 08:07:29;;;;;;;12.07;4.22;;;;;;;;;;5045997;28;20044;-76
2024/01/08 08:09:55;;;;;;;16.80;4.95;;;;;;;;;;5045746;28;20753;-75
2024/01/08 08:12:20;;;;;;;15.27;5.82;;;;;;;;;;5044131;28;20096;-75
2024/01/08 08:14:48;;;;;;;13.70;5.35;;;;;;;;;;5045513;28;20518;-76
2024/01/08 08:17:14;;;;;;;10.23;3.72;;;;;;;;;;5046220;28;20133;-75
2024/01/08 08:19:43;;;;;;;15.68;5.70;;;;;;;;;;5033218;28;20481;-75
2024/01/08 08:22:12;;;;;;;9.02;3.80;;;;;;;;;;5036654;28;20025;-75
2024/01/08 08:24:39;;;;;;;10.43;4.75;;;;;;;;;;5061067;28;20616;-75
2024/01/08 08:27:05;;;;;;;10.98;4.78;;;;;;;;;;5043091;28;20037;-74
2024/01/08 08:29:31;;;;;;;11.27;4.15;;;;;;;;;;5033780;28;20025;-74
2024/01/08 08:31:56;;;;;;;12.25;5.32;;;;;;;;;;5037879;28;20037;-74
2024/01/08 08:34:22;;;;;;;15.73;6.15;;;;;;;;;;5043580;28;20579;-74
2024/01/08 08:36:47;;;;;;;13.75;6.05;;;;;;;;;;5045483;28;20476;-74
2024/01/08 08:39:16;;;;;;;13.18;5.20;;;;;;;;;;5044174;28;20111;-75
2024/01/08 08:41:43;;;;;;;13.95;5.75;;;;;;;;;;5060241;28;20044;-74
2024/01/08 08:44:08;;;;;;;11.70;6.20;;;;;;;;;;5025283;28;20510;-74
2024/01/08 08:46:35;;;;;;;11.20;4.78;;;;;;;;;;5024557;28;20030;-74
2024/01/08 08:49:01;;;;;;;9.60;3.95;;;;;;;;;;5025833;28;20029;-74
2024/01/08 08:51:26;;;;;;;11.50;5.22;;;;;;;;;;5040609;28;20081;-74
2024/01/08 08:53:52;;;;;;;12.85;5.40;;;;;;;;;;5040820;28;20140;-74
2024/01/08 08:56:17;;;;;;;6.45;2.30;;;;;;;;;;5025566;28;20034;-74
2024/01/08 08:58:42;;;;;;;7.78;3.47;;;;;;;;;;5025073;28;20037;-74
2024/01/08 09:01:08;;;;;;;15.38;6.45;;;;;;;;;;5024052;28;20260;-74
2024/01/08 09:03:33;;;;;;;6.63;3.38;;;;;;;;;;5041801;28;20041;-74
2024/01/08 09:05:59;;;;;;;8.77;4.22;;;;;;;;;;5028369;28;20038;-74
2024/01/08 09:08:26;;;;;;;12.32;4.38;;;;;;;;;;5037722;28;20062;-74
2024/01/08 09:10:51;;;;;;;8.18;3.75;;;;;;;;;;5032204;28;20033;-74
2024/01/08 09:13:17;;;;;;;10.40;4.93;;;;;;;;;;5024226;28;20030;-75
2024/01/08 09:15:42;;;;;;;6.28;2.92;;;;;;;;;;5025355;28;20030;-75
2024/01/08 09:18:08;;;;;;;15.77;3.83;;;;;;;;;;5025291;28;20091;-75
2024/01/08 09:20:33;;;;;;;6.60;3.03;;;;;;;;;;5023651;28;20049;-75
2024/01/08 09:22:59;;;;;;;7.13;2.97;;;;;;;;;;5039634;28;20099;-74
2024/01/08 09:25:24;;;;;;;4.95;2.55;;;;;;;;;;5025053;28;20044;-75
2024/01/08 09:27:49;;;;;;;11.57;5.55;;;;;;;;;;5025441;28;20029;-74
2024/01/08 09:30:15;;;;;;;13.77;6.07;;;;;;;;;;5024899;28;20038;-75
2024/01/08 09:32:40;;;;;;;12.27;5.35;;;;;;;;;;5027909;28;20029;-75
2024/01/08 09:35:06;;;;;;;14.85;7.60;;;;;;;;;;5024477;28;20037;-75
2024/01/08 09:37:31;;;;;;;11.57;4.97;;;;;;;;;;5023367;28;20036;-74
2024/01/08 09:39:57;;;;;;;8.40;4.28;;;;;;;;;;5024568;28;20017;-74
2024/01/08 09:42:27;;;;;;;12.68;5.95;;;;;;;;;;5030312;28;20285;-74
2024/01/08 09:44:54;;;;;;;16.23;7.45;;;;;;;;;;5041865;28;20064;-76
2024/01/08 09:47:20;;;;;;;9.68;4.25;;;;;;;;;;5044254;28;20324;-76
2024/01/08 09:49:46;;;;;;;17.45;6.38;;;;;;;;;;5043347;28;20510;-75
2024/01/08 09:52:16;;;;;;;14.95;5.20;;;;;;;;;;5047882;28;20043;-75
2024/01/08 09:54:44;;;;;;;11.13;5.47;;;;;;;;;;5047749;28;20573;-75
2024/01/08 09:57:10;;;;;;;12.98;4.35;;;;;;;;;;5048141;28;20040;-75
2024/01/08 09:59:36;;;;;;;13.85;4.68;;;;;;;;;;5046196;28;20087;-75
2024/01/08 10:02:02;;;;;;;13.98;5.47;;;;;;;;;;5048390;28;20047;-75
2024/01/08 10:04:28;;;;;;;15.60;5.80;;;;;;;;;;5046138;28;20612;-74
2024/01/08 10:07:05;;;;;;;12.95;6.43;;;;;;;;;;5046165;28;20039;-74
2024/01/08 10:09:30;;;;;;;13.85;5.50;;;;;;;;;;5042625;28;20033;-74
2024/01/08 10:11:56;;;;;;;15.57;7.70;;;;;;;;;;5040088;28;20041;-74
2024/01/08 10:14:23;;;;;;;19.70;9.32;;;;;;;;;;5047940;28;20486;-74
2024/01/08 10:16:49;;;;;;;9.60;4.43;;;;;;;;;;5048312;28;20044;-74
2024/01/08 10:19:17;;;;;;;16.92;8.02;;;;;;;;;;5046882;28;20063;-74
2024/01/08 10:21:43;;;;;;;16.85;6.63;;;;;;;;;;5049022;28;20327;-74
2024/01/08 10:24:09;;;;;;;11.13;4.55;;;;;;;;;;5051677;28;20521;-75
2024/01/08 10:26:35;;;;;;;9.60;4.68;;;;;;;;;;5060025;28;20033;-75
2024/01/08 10:29:02;;;;;;;11.80;6.35;;;;;;;;;;5065855;28;20033;-74
2024/01/08 10:31:27;;;;;;;9.50;4.65;;;;;;;;;;5052740;28;20049;-75
2024/01/08 10:34:03;;;;;;;16.98;6.15;;;;;;;;;;5049431;28;20060;-74
2024/01/08 10:36:32;;;;;;;11.45;5.95;;;;;;;;;;5047529;28;20075;-74
2024/01/08 10:39:00;;;;;;;6.15;3.03;;;;;;;;;;5043441;28;20046;-74
2024/01/08 10:41:27;;;;;;;14.05;5.97;;;;;;;;;;5042608;28;20577;-74
2024/01/08 10:43:52;;;;;;;6.75;3.88;;;;;;;;;;5045348;28;20111;-74
2024/01/08 10:46:18;;;;;;;11.93;5.78;;;;;;;;;;5039399;28;20125;-74
2024/01/08 10:48:45;;;;;;;11.30;5.47;;;;;;;;;;5031177;28;20049;-74
2024/01/08 10:51:15;;;;;;;12.05;5.22;;;;;;;;;;5026961;28;20037;-74
2024/01/08 10:53:53;;;;;;;13.38;4.78;;;;;;;;;;5027121;28;20038;-74
2024/01/08 10:56:24;;;;;;;11.30;5.40;;;;;;;;;;5024936;28;20041;-74
2024/01/08 10:59:00;;;;;;;12.77;6.00;;;;;;;;;;5027556;28;20121;-74
2024/01/08 11:01:29;;;;;;;14.63;6.93;;;;;;;;;;5024630;28;20541;-74
2024/01/08 11:03:56;;;;;;;12.38;6.18;;;;;;;;;;5026867;28;20434;-74
2024/01/08 11:06:22;;;;;;;12.43;5.60;;;;;;;;;;5026830;28;20022;-74
2024/01/08 11:08:49;;;;;;;17.77;7.93;;;;;;;;;;5025394;28;20408;-74
2024/01/08 11:11:15;;;;;;;13.05;6.30;;;;;;;;;;5024998;28;20033;-74
2024/01/08 11:13:42;;;;;;;13.50;5.47;;;;;;;;;;5026732;28;20721;-74
2024/01/08 11:16:08;;;;;;;18.23;7.03;;;;;;;;;;5024907;28;20113;-74
2024/01/08 11:18:34;;;;;;;7.72;4.63;;;;;;;;;;5025485;28;20014;-74
2024/01/08 11:21:01;;;;;;;16.35;8.52;;;;;;;;;;5024915;28;20172;-74
2024/01/08 11:23:38;;;;;;;14.23;6.38;;;;;;;;;;5026027;28;20041;-74
2024/01/08 11:26:08;;;;;;;14.45;5.43;;;;;;;;;;5026707;28;20041;-75
2024/01/08 11:28:37;;;;;;;13.63;5.75;;;;;;;;;;5025432;28;20116;-75
2024/01/08 11:31:42;;;;;;;13.35;6.00;;;;;;;;;;5028537;28;20291;-75
2024/01/08 11:34:41;;;;;;;9.05;4.28;;;;;;;;;;5027387;28;20524;-75
2024/01/08 11:37:21;;;;;;;13.75;5.80;;;;;;;;;;5031488;28;20063;-75
2024/01/08 11:39:49;;;;;;;12.63;5.28;;;;;;;;;;5050525;28;20743;-75
2024/01/08 11:42:15;;;;;;;5.95;3.85;;;;;;;;;;5047651;28;20033;-75
2024/01/08 11:44:41;;;;;;;14.77;5.90;;;;;;;;;;5053402;28;20037;-75
2024/01/08 11:47:06;;;;;;;14.85;6.45;;;;;;;;;;5059905;28;20832;-75
2024/01/08 11:49:32;;;;;;;13.52;6.93;;;;;;;;;;5051491;28;20040;-75
2024/01/08 11:52:00;;;;;;;14.38;6.70;;;;;;;;;;5046992;28;20128;-75
2024/01/08 11:54:26;;;;;;;11.65;5.60;;;;;;;;;;5062119;28;20025;-75
2024/01/08 11:56:52;;;;;;;13.23;5.85;;;;;;;;;;5047257;28;20124;-75
2024/01/08 11:59:34;;;;;;;9.60;4.25;;;;;;;;;;5046541;28;20033;-75
2024/01/08 12:02:16;;;;;;;13.38;6.70;;;;;;;;;;5062078;28;20107;-75
2024/01/08 12:04:50;;;;;;;11.55;5.65;;;;;;;;;;5045409;28;20048;-75
2024/01/08 12:07:16;;;;;;;12.40;5.78;;;;;;;;;;5028418;28;20040;-75
2024/01/08 12:09:41;;;;;;;12.35;5.10;;;;;;;;;;5047682;28;20021;-75
2024/01/08 12:12:08;;;;;;;14.93;7.20;;;;;;;;;;5046834;28;20068;-75
2024/01/08 12:14:34;;;;;;;11.23;5.57;;;;;;;;;;5045628;28;20032;-75
2024/01/08 12:17:01;;;;;;;13.45;3.58;;;;;;;;;;5045574;28;20032;-75
2024/01/08 12:19:53;;;;;;;13.57;6.35;;;;;;;;;;5046535;28;20037;-76
2024/01/08 12:22:20;;;;;;;11.90;5.88;;;;;;;;;;5045924;28;20453;-76
2024/01/08 12:24:49;;;;;;;11.13;5.03;;;;;;;;;;5045384;28;20021;-76
2024/01/08 12:27:16;;;;;;;6.22;3.22;;;;;;;;;;5045430;28;20187;-75
2024/01/08 12:29:42;;;;;;;8.27;4.53;;;;;;;;;;5046916;28;20048;-75
2024/01/08 12:32:10;;;;;;;10.55;4.63;;;;;;;;;;5046911;28;20034;-75
2024/01/08 12:34:37;;;;;;;11.15;4.90;;;;;;;;;;5046360;28;20055;-75
2024/01/08 12:37:03;;;;;;;13.10;4.65;;;;;;;;;;5045449;28;20576;-75
2024/01/08 12:39:33;;;;;;;13.07;6.55;;;;;;;;;;5045064;28;20043;-75
2024/01/08 12:42:00;;;;;;;9.35;4.30;;;;;;;;;;5058865;28;20179;-75
2024/01/08 12:44:27;;;;;;;12.02;4.82;;;;;;;;;;5025656;28;20044;-75
2024/01/08 12:46:56;;;;;;;9.27;5.20;;;;;;;;;;5024542;28;20107;-75
2024/01/08 12:49:22;;;;;;;10.57;5.22;;;;;;;;;;5026140;28;20584;-75
2024/01/08 12:51:48;;;;;;;9.43;4.13;;;;;;;;;;5026913;28;20116;-75
2024/01/08 12:54:13;;;;;;;10.10;5.00;;;;;;;;;;5026490;28;20121;-75
2024/01/08 12:56:38;;;;;;;9.30;4.53;;;;;;;;;;5026468;28;20083;-75
2024/01/08 12:59:04;;;;;;;9.18;4.63;;;;;;;;;;5026615;28;20038;-76
2024/01/08 13:01:30;;;;;;;7.93;3.95;;;;;;;;;;5028107;28;20064;-75
2024/01/08 13:03:55;;;;;;;12.00;5.93;;;;;;;;;;5035273;28;20056;-75
2024/01/08 13:06:22;;;;;;;10.63;5.32;;;;;;;;;;5041581;28;20048;-77
2024/01/08 13:08:52;;;;;;;9.90;4.30;;;;;;;;;;5034267;28;20119;-77
2024/01/08 13:11:17;;;;;;;6.05;3.03;;;;;;;;;;5026022;28;20410;-77
2024/01/08 13:13:43;;;;;;;9.52;4.82;;;;;;;;;;5042976;28;20043;-77
2024/01/08 13:16:08;;;;;;;7.25;4.05;;;;;;;;;;5065750;28;20028;-75
2024/01/08 13:18:34;;;;;;;11.52;5.25;;;;;;;;;;5064714;28;20119;-76
2024/01/08 13:20:59;;;;;;;12.00;4.25;;;;;;;;;;5064693;28;20467;-77
2024/01/08 13:23:25;;;;;;;10.85;6.13;;;;;;;;;;5065422;28;20135;-77
2024/01/08 13:25:52;;;;;;;9.73;4.88;;;;;;;;;;5065323;28;20120;-77
2024/01/08 13:28:17;;;;;;;11.40;5.70;;;;;;;;;;5063646;28;20428;-77
2024/01/08 13:30:43;;;;;;;9.70;4.68;;;;;;;;;;5064347;28;20020;-78
2024/01/08 13:33:09;;;;;;;8.80;4.20;;;;;;;;;;5064158;28;20094;-77
2024/01/08 13:35:34;;;;;;;7.55;3.67;;;;;;;;;;5063270;28;20446;-75
2024/01/08 13:38:00;;;;;;;8.90;3.97;;;;;;;;;;5054424;28;20849;-76
2024/01/08 13:40:28;;;;;;;12.93;4.40;;;;;;;;;;5043800;28;20790;-78
2024/01/08 13:42:56;;;;;;;9.90;5.22;;;;;;;;;;5035691;28;20562;-77
2024/01/08 13:45:22;;;;;;;12.32;5.57;;;;;;;;;;5023695;28;20561;-77
2024/01/08 13:47:50;;;;;;;8.95;4.70;;;;;;;;;;5023323;28;20107;-77
2024/01/08 13:50:19;;;;;;;13.80;5.32;;;;;;;;;;5025042;28;20037;-77
2024/01/08 13:52:45;;;;;;;5.35;3.22;;;;;;;;;;5025618;28;20048;-76
2024/01/08 13:55:12;;;;;;;7.97;4.57;;;;;;;;;;5026299;28;20040;-75
2024/01/08 13:57:38;;;;;;;7.32;3.45;;;;;;;;;;5028176;28;20036;-77
2024/01/08 14:00:05;;;;;;;7.90;4.25;;;;;;;;;;5026458;28;20033;-77
2024/01/08 14:02:32;;;;;;;7.78;4.30;;;;;;;;;;5023824;28;20052;-77
2024/01/08 14:04:58;;;;;;;9.32;4.07;;;;;;;;;;5024745;28;20042;-77
2024/01/08 14:07:23;;;;;;;9.25;4.20;;;;;;;;;;5023533;28;20062;-77
2024/01/08 14:09:48;;;;;;;13.93;6.18;;;;;;;;;;5025248;28;20087;-77
2024/01/08 14:12:14;;;;;;;7.78;3.78;;;;;;;;;;5025513;28;20091;-77
2024/01/08 14:14:39;;;;;;;6.80;3.15;;;;;;;;;;5025714;28;20596;-77
2024/01/08 14:17:05;;;;;;;9.02;4.57;;;;;;;;;;5026530;28;20045;-76
2024/01/08 14:19:30;;;;;;;7.57;3.45;;;;;;;;;;5028296;28;20033;-77
2024/01/08 14:21:55;;;;;;;9.52;4.90;;;;;;;;;;5031367;28;20034;-77
2024/01/08 14:24:21;;;;;;;10.02;4.55;;;;;;;;;;5039274;28;20017;-77
2024/01/08 14:26:47;;;;;;;7.35;3.75;;;;;;;;;;5038378;28;20075;-76
2024/01/08 14:29:12;;;;;;;8.05;4.60;;;;;;;;;;5042634;28;20130;-77
2024/01/08 14:31:38;;;;;;;9.48;4.85;;;;;;;;;;5062012;28;20037;-76